Time;durP1;ratioP1;P1;durP2;ratioP2;P2;SDS_P1;SDS_P2;PMS_P1;PMS_P2;Temp;Humidity;BMP_temperature;BMP_pressure;BME280_temperature;BME280_humidity;BME280_pressure;Samples;Min_cycle;Max_cycle;Signal;HPM_P1;HPM_P2
2021/12/12 00:00:46;;;;;;;20.73;4.00;;;10.80;99.90;;;;;;5006794;28;20856;-63
2021/12/12 00:03:32;;;;;;;31.37;3.83;;;10.80;99.90;;;;;;5020236;28;20237;-64
2021/12/12 00:06:05;;;;;;;26.63;4.43;;;10.80;99.90;;;;;;4994909;28;20243;-64
2021/12/12 00:08:32;;;;;;;40.37;4.20;;;10.80;99.90;;;;;;5005980;28;20278;-63
2021/12/12 00:11:08;;;;;;;40.63;4.37;;;10.80;99.90;;;;;;5005156;28;20235;-63
2021/12/12 00:13:50;;;;;;;29.70;3.83;;;10.80;99.90;;;;;;5006302;28;20185;-64
2021/12/12 00:16:16;;;;;;;34.67;3.83;;;10.90;99.90;;;;;;4999102;28;20268;-63
2021/12/12 00:18:43;;;;;;;40.50;3.90;;;11.00;99.90;;;;;;5006497;28;20185;-63
2021/12/12 00:21:16;;;;;;;28.77;4.00;;;11.10;99.90;;;;;;5020323;28;20192;-64
2021/12/12 00:23:43;;;;;;;45.27;4.77;;;11.10;99.90;;;;;;5003912;28;20303;-62
2021/12/12 00:26:10;;;;;;;37.10;4.17;;;11.10;99.90;;;;;;5005157;28;21045;-64
2021/12/12 00:28:39;;;;;;;42.80;4.13;;;11.10;99.90;;;;;;5004996;28;20479;-63
2021/12/12 00:31:11;;;;;;;31.17;4.07;;;11.00;99.90;;;;;;5002982;28;20227;-63
2021/12/12 00:33:42;;;;;;;30.57;3.93;;;11.00;99.90;;;;;;4985082;28;20288;-64
2021/12/12 00:36:14;;;;;;;34.20;4.80;;;11.00;99.90;;;;;;5019714;28;20219;-62
2021/12/12 00:38:41;;;;;;;32.63;4.23;;;11.10;99.90;;;;;;5004865;28;20191;-62
2021/12/12 00:41:11;;;;;;;31.00;3.60;;;11.10;99.90;;;;;;5037968;28;20526;-63
2021/12/12 00:43:46;;;;;;;36.20;5.53;;;11.10;99.90;;;;;;5008895;28;20212;-63
2021/12/12 00:46:14;;;;;;;32.13;4.23;;;11.20;99.90;;;;;;5041000;28;20673;-64
2021/12/12 00:48:45;;;;;;;37.10;4.67;;;11.30;99.90;;;;;;5025121;28;20211;-62
2021/12/12 00:51:16;;;;;;;28.80;3.63;;;11.30;99.90;;;;;;5006288;28;21060;-62
2021/12/12 00:53:45;;;;;;;40.73;4.70;;;11.20;99.90;;;;;;5008589;28;20189;-63
2021/12/12 00:56:12;;;;;;;33.40;4.30;;;11.20;99.90;;;;;;5016279;28;20216;-61
2021/12/12 00:58:38;;;;;;;45.07;4.73;;;11.10;99.90;;;;;;5010063;28;20193;-63
2021/12/12 01:01:13;;;;;;;33.13;4.50;;;11.00;99.90;;;;;;5008489;28;20196;-62
2021/12/12 01:03:47;;;;;;;24.60;3.20;;;10.80;99.90;;;;;;4991951;28;20204;-63
2021/12/12 01:06:18;;;;;;;29.20;4.43;;;10.80;99.90;;;;;;5024449;28;20239;-63
2021/12/12 01:08:47;;;;;;;32.23;4.40;;;10.70;99.90;;;;;;5009468;28;20257;-62
2021/12/12 01:11:35;;;;;;;33.90;4.40;;;10.70;99.90;;;;;;5007536;28;20181;-62
2021/12/12 01:14:10;;;;;;;35.87;4.03;;;10.70;99.90;;;;;;5024408;28;20188;-63
2021/12/12 01:16:47;;;;;;;28.37;4.03;;;10.60;99.90;;;;;;5007780;28;20206;-63
2021/12/12 01:19:34;;;;;;;39.10;3.90;;;10.70;99.90;;;;;;5008090;28;20257;-64
2021/12/12 01:22:08;;;;;;;39.37;4.43;;;10.70;99.90;;;;;;5005157;28;20195;-63
2021/12/12 01:24:45;;;;;;;47.10;4.03;;;10.70;99.90;;;;;;5009530;28;20229;-62
2021/12/12 01:27:13;;;;;;;34.97;4.13;;;10.70;99.90;;;;;;5008878;28;20983;-64
2021/12/12 01:29:40;;;;;;;30.30;4.20;;;10.70;99.90;;;;;;5009650;28;20192;-64
2021/12/12 01:32:20;;;;;;;36.43;4.43;;;10.70;99.90;;;;;;5039927;28;20181;-62
2021/12/12 01:34:50;;;;;;;30.33;4.77;;;10.80;99.90;;;;;;5006737;28;20215;-63
2021/12/12 01:40:14;;;;;;;44.37;4.77;;;10.70;99.90;;;;;;5008208;28;20216;-63
2021/12/12 01:42:59;;;;;;;29.03;5.03;;;10.70;99.90;;;;;;5008432;28;20270;-64
2021/12/12 01:45:44;;;;;;;41.33;4.63;;;10.70;99.90;;;;;;5009183;28;20184;-64
2021/12/12 01:48:40;;;;;;;31.83;4.23;;;10.70;99.90;;;;;;5003005;28;20279;-63
2021/12/12 01:51:09;;;;;;;53.03;5.30;;;10.70;99.90;;;;;;5008009;28;20196;-63
2021/12/12 01:53:42;;;;;;;35.13;4.27;;;10.60;99.90;;;;;;5023599;28;20196;-62
2021/12/12 01:56:26;;;;;;;47.07;4.67;;;10.50;99.90;;;;;;5003234;28;20534;-63
2021/12/12 01:59:01;;;;;;;26.60;3.30;;;10.50;99.90;;;;;;4990310;28;20300;-64
2021/12/12 02:01:56;;;;;;;30.57;4.07;;;10.50;99.90;;;;;;4999534;28;20208;-62
2021/12/12 02:04:33;;;;;;;32.53;4.50;;;10.50;99.90;;;;;;4996349;28;20236;-64
2021/12/12 02:07:01;;;;;;;28.50;3.83;;;10.60;99.90;;;;;;5006780;28;20464;-64
2021/12/12 02:09:28;;;;;;;33.73;3.80;;;10.60;99.90;;;;;;5008631;28;20280;-63
2021/12/12 02:11:59;;;;;;;30.13;4.40;;;10.70;99.90;;;;;;5008026;28;20275;-63
2021/12/12 02:14:28;;;;;;;37.47;4.17;;;10.70;99.90;;;;;;5008467;28;20927;-64
2021/12/12 02:17:05;;;;;;;36.07;4.57;;;10.70;99.90;;;;;;5008565;28;20653;-63
2021/12/12 02:19:51;;;;;;;29.10;3.67;;;10.70;99.90;;;;;;5008831;28;20257;-64
2021/12/12 02:36:18;;;;;;;31.73;3.83;;;10.70;99.90;;;;;;5007086;28;20201;-63
2021/12/12 02:38:48;;;;;;;33.13;4.03;;;10.60;99.90;;;;;;5040305;28;20204;-65
2021/12/12 02:41:19;;;;;;;29.43;3.63;;;10.60;99.90;;;;;;5022076;28;20570;-64
2021/12/12 02:43:58;;;;;;;32.03;4.80;;;10.60;99.90;;;;;;5008095;28;20927;-64
2021/12/12 02:46:34;;;;;;;30.10;3.90;;;10.50;99.90;;;;;;5022465;28;20200;-62
2021/12/12 02:49:06;;;;;;;27.33;4.30;;;10.50;99.90;;;;;;5002375;28;20662;-64
2021/12/12 02:51:40;;;;;;;26.67;3.43;;;10.60;99.90;;;;;;5007008;28;20188;-63
2021/12/12 02:54:08;;;;;;;35.90;5.47;;;10.60;99.90;;;;;;5006421;28;20201;-65
2021/12/12 02:56:43;;;;;;;29.70;4.13;;;10.60;99.90;;;;;;5007592;28;20199;-64
2021/12/12 02:59:16;;;;;;;30.90;4.00;;;10.60;99.90;;;;;;4989621;28;20298;-64
2021/12/12 03:01:54;;;;;;;31.97;3.80;;;10.60;99.90;;;;;;5006863;28;20208;-64
2021/12/12 03:04:24;;;;;;;38.33;4.33;;;10.60;99.90;;;;;;4994020;28;20656;-64
2021/12/12 03:06:51;;;;;;;28.33;3.60;;;10.50;99.90;;;;;;5005235;28;20189;-64
2021/12/12 03:09:42;;;;;;;33.87;4.20;;;10.60;99.90;;;;;;4997758;28;20188;-63
2021/12/12 03:12:19;;;;;;;29.27;4.37;;;10.60;99.90;;;;;;5021778;28;20668;-63
2021/12/12 03:14:47;;;;;;;33.03;3.80;;;10.60;99.90;;;;;;5007424;28;20200;-64
2021/12/12 03:17:22;;;;;;;33.80;3.67;;;10.60;99.90;;;;;;5007511;28;20204;-63
2021/12/12 03:19:55;;;;;;;26.80;3.63;;;10.60;99.90;;;;;;5035056;28;20708;-63
2021/12/12 03:22:26;;;;;;;35.93;4.53;;;10.50;99.90;;;;;;5004827;28;20199;-63
2021/12/12 03:24:54;;;;;;;42.13;3.67;;;10.50;99.90;;;;;;5007418;28;20543;-63
2021/12/12 03:27:23;;;;;;;28.07;3.43;;;10.50;99.90;;;;;;5006304;28;20274;-63
2021/12/12 03:29:53;;;;;;;27.07;3.43;;;10.50;99.90;;;;;;5035716;28;20209;-63
2021/12/12 03:32:23;;;;;;;33.37;4.13;;;10.50;99.90;;;;;;5006379;28;20613;-62
2021/12/12 03:34:55;;;;;;;36.60;4.23;;;10.60;99.90;;;;;;5005942;28;20188;-63
2021/12/12 03:37:26;;;;;;;41.57;4.30;;;10.60;99.90;;;;;;4997753;28;20204;-62
2021/12/12 03:39:56;;;;;;;30.17;4.30;;;10.60;99.90;;;;;;5005804;28;20181;-63
2021/12/12 03:42:27;;;;;;;26.57;4.13;;;10.70;99.90;;;;;;5005744;28;20185;-62
2021/12/12 03:44:55;;;;;;;32.77;4.60;;;10.60;99.90;;;;;;5007202;28;20282;-63
2021/12/12 03:47:33;;;;;;;33.97;4.10;;;10.60;99.90;;;;;;5038356;28;20196;-62
2021/12/12 03:50:04;;;;;;;44.27;3.67;;;10.70;99.90;;;;;;5005425;28;20185;-63
2021/12/12 03:52:32;;;;;;;32.40;4.07;;;10.70;99.90;;;;;;5020520;28;20590;-64
2021/12/12 03:55:01;;;;;;;30.27;4.10;;;10.70;99.90;;;;;;5012370;28;20184;-64
2021/12/12 03:57:31;;;;;;;37.67;4.33;;;10.70;99.90;;;;;;5003964;28;20189;-63
2021/12/12 03:59:59;;;;;;;34.17;4.23;;;10.70;99.90;;;;;;5015746;28;20317;-63
2021/12/12 04:02:26;;;;;;;28.77;3.20;;;10.70;99.90;;;;;;5004638;28;20203;-64
2021/12/12 04:04:53;;;;;;;33.57;3.70;;;10.70;99.90;;;;;;5006329;28;20274;-63
2021/12/12 04:07:25;;;;;;;28.40;4.93;;;10.70;99.90;;;;;;5003523;28;20241;-63
2021/12/12 04:09:53;;;;;;;33.27;4.20;;;10.70;99.90;;;;;;5006635;28;20218;-64
2021/12/12 04:12:21;;;;;;;35.40;4.50;;;10.70;99.90;;;;;;5004005;28;20356;-63
2021/12/12 04:14:51;;;;;;;39.97;4.70;;;10.70;99.90;;;;;;5005779;28;20179;-63
2021/12/12 04:17:23;;;;;;;28.00;3.67;;;10.70;99.90;;;;;;5007382;28;20282;-63
2021/12/12 04:19:54;;;;;;;39.53;4.20;;;10.70;99.90;;;;;;5006661;28;20554;-65
2021/12/12 04:22:20;;;;;;;33.83;4.40;;;10.70;99.90;;;;;;5003702;28;20189;-63
2021/12/12 04:24:53;;;;;;;27.63;4.20;;;10.70;99.90;;;;;;5006520;28;20232;-64
2021/12/12 04:27:20;;;;;;;33.20;4.50;;;10.60;99.90;;;;;;5005686;28;20200;-62
2021/12/12 04:29:51;;;;;;;38.37;4.70;;;10.60;99.90;;;;;;5004332;28;20534;-63
2021/12/12 04:32:23;;;;;;;27.27;4.00;;;10.60;99.90;;;;;;5005538;28;20511;-62
2021/12/12 04:35:07;;;;;;;36.43;4.60;;;10.60;99.90;;;;;;5006468;28;20279;-63
2021/12/12 04:37:34;;;;;;;44.93;4.03;;;10.50;99.90;;;;;;5000317;28;20672;-62
2021/12/12 04:40:01;;;;;;;27.77;3.83;;;10.50;99.90;;;;;;5006473;28;20326;-63
2021/12/12 04:42:36;;;;;;;33.50;4.43;;;10.50;99.90;;;;;;5003922;28;20205;-63
2021/12/12 04:45:50;;;;;;;32.87;4.03;;;10.50;99.90;;;;;;5004393;28;20188;-62
2021/12/12 04:51:30;;;;;;;36.33;3.83;;;10.60;99.90;;;;;;4996601;28;20181;-63
2021/12/12 04:54:21;;;;;;;29.50;4.03;;;10.60;99.90;;;;;;5006064;28;20544;-62
2021/12/12 04:57:13;;;;;;;39.73;5.17;;;10.70;99.90;;;;;;4997568;28;20199;-65
2021/12/12 04:59:51;;;;;;;28.43;3.90;;;10.70;99.90;;;;;;5037222;28;20619;-62
2021/12/12 05:02:38;;;;;;;35.33;4.07;;;10.70;99.90;;;;;;5005418;28;20223;-64
2021/12/12 05:05:21;;;;;;;31.93;3.90;;;10.70;99.90;;;;;;5000738;28;20707;-64
2021/12/12 05:08:04;;;;;;;48.03;5.33;;;10.70;99.90;;;;;;5005613;28;20227;-62
2021/12/12 05:10:37;;;;;;;33.63;4.43;;;10.70;99.90;;;;;;5005915;28;20212;-63
2021/12/12 05:13:32;;;;;;;33.70;4.20;;;10.70;99.90;;;;;;4988225;28;20185;-64
2021/12/12 05:16:08;;;;;;;34.33;4.23;;;10.70;99.90;;;;;;4988139;28;20215;-63
2021/12/12 05:18:47;;;;;;;37.87;4.47;;;10.70;99.90;;;;;;5005557;28;20731;-65
2021/12/12 05:21:18;;;;;;;40.17;3.87;;;10.70;99.90;;;;;;4988660;28;20239;-63
2021/12/12 05:23:51;;;;;;;39.77;5.13;;;10.70;99.90;;;;;;5008414;28;20351;-65
2021/12/12 05:26:36;;;;;;;29.17;4.10;;;10.70;99.90;;;;;;5004189;28;20192;-64
2021/12/12 05:29:27;;;;;;;31.13;4.90;;;10.70;99.90;;;;;;5008942;28;20216;-64
2021/12/12 05:31:59;;;;;;;42.90;4.57;;;10.70;99.90;;;;;;5001651;28;20228;-64
2021/12/12 05:34:33;;;;;;;39.43;4.57;;;10.70;99.90;;;;;;5008784;28;20193;-63
2021/12/12 05:37:03;;;;;;;38.13;4.23;;;10.80;99.90;;;;;;5009344;28;20200;-64
2021/12/12 05:39:31;;;;;;;34.87;4.90;;;10.80;99.90;;;;;;5009383;28;20223;-66
2021/12/12 05:42:00;;;;;;;29.70;3.97;;;10.90;99.90;;;;;;5008269;28;20197;-63
2021/12/12 05:44:30;;;;;;;31.97;4.53;;;11.00;99.90;;;;;;5006845;28;20335;-62
2021/12/12 05:47:01;;;;;;;28.53;4.07;;;11.00;99.90;;;;;;5009222;28;20200;-63
2021/12/12 05:49:29;;;;;;;36.67;3.97;;;11.10;99.90;;;;;;5009416;28;20188;-63
2021/12/12 05:51:56;;;;;;;39.27;5.10;;;11.10;99.90;;;;;;5007973;28;20519;-64
2021/12/12 05:54:28;;;;;;;35.17;5.10;;;11.10;99.90;;;;;;5009238;28;20673;-63
2021/12/12 05:56:55;;;;;;;45.37;4.47;;;11.10;99.90;;;;;;5007062;28;20204;-63
2021/12/12 05:59:23;;;;;;;32.60;4.73;;;11.20;99.90;;;;;;5008929;28;20181;-63
2021/12/12 06:01:51;;;;;;;45.03;4.90;;;11.20;99.90;;;;;;5006245;28;20198;-64
2021/12/12 06:04:19;;;;;;;45.87;5.53;;;11.20;99.90;;;;;;5008763;28;20285;-62
2021/12/12 06:06:47;;;;;;;46.47;4.93;;;11.30;99.90;;;;;;5005906;28;20189;-62
2021/12/12 06:09:17;;;;;;;31.80;4.33;;;11.30;99.90;;;;;;5008759;28;20246;-62
2021/12/12 06:11:49;;;;;;;39.43;4.43;;;11.40;99.90;;;;;;5006436;28;20191;-63
2021/12/12 06:14:18;;;;;;;30.00;4.00;;;11.50;99.90;;;;;;5008549;28;20649;-62
2021/12/12 06:16:46;;;;;;;36.70;4.90;;;11.50;99.90;;;;;;5006858;28;20288;-62
2021/12/12 06:19:22;;;;;;;35.57;3.83;;;11.50;99.90;;;;;;5008136;28;20255;-63
2021/12/12 06:21:55;;;;;;;33.97;4.93;;;11.60;99.90;;;;;;5007845;28;20278;-64
2021/12/12 06:24:25;;;;;;;42.40;4.67;;;11.70;99.90;;;;;;5006767;28;20224;-61
2021/12/12 06:26:55;;;;;;;34.73;4.70;;;11.70;99.90;;;;;;5042022;28;20205;-63
2021/12/12 06:29:23;;;;;;;44.63;4.60;;;11.80;99.90;;;;;;5009104;28;20280;-62
2021/12/12 06:31:52;;;;;;;38.97;4.83;;;11.80;99.90;;;;;;5006080;28;20211;-63
2021/12/12 06:34:19;;;;;;;37.23;4.73;;;11.90;99.90;;;;;;5008356;28;20227;-61
2021/12/12 06:36:49;;;;;;;32.50;4.70;;;11.90;99.90;;;;;;5007172;28;20239;-61
2021/12/12 06:39:17;;;;;;;25.27;4.60;;;11.90;99.90;;;;;;5008276;28;20642;-61
2021/12/12 06:41:46;;;;;;;37.83;4.87;;;11.90;99.90;;;;;;5007664;28;20216;-61
2021/12/12 06:44:13;;;;;;;31.30;4.30;;;12.00;99.90;;;;;;5006201;28;20315;-62
2021/12/12 06:46:42;;;;;;;36.77;4.57;;;12.00;99.90;;;;;;5007699;28;20882;-59
2021/12/12 06:49:16;;;;;;;31.93;4.20;;;12.10;99.90;;;;;;5007234;28;20691;-61
2021/12/12 06:51:53;;;;;;;39.00;4.90;;;12.10;99.90;;;;;;5005755;28;20196;-62
2021/12/12 06:54:25;;;;;;;29.73;4.30;;;12.20;99.90;;;;;;4986483;28;20195;-64
2021/12/12 06:57:02;;;;;;;33.13;4.03;;;12.20;99.90;;;;;;5000794;28;20884;-62
2021/12/12 06:59:37;;;;;;;36.90;5.30;;;12.30;99.90;;;;;;5006201;28;20707;-62
2021/12/12 07:02:06;;;;;;;32.80;4.80;;;12.40;99.90;;;;;;4989105;28;20192;-63
2021/12/12 07:04:36;;;;;;;36.20;3.93;;;12.50;99.90;;;;;;5008096;28;20225;-63
2021/12/12 07:07:08;;;;;;;34.23;5.30;;;12.50;99.90;;;;;;5006803;28;20731;-63
2021/12/12 07:09:37;;;;;;;31.03;4.17;;;12.60;99.90;;;;;;5006656;28;20900;-63
2021/12/12 07:12:08;;;;;;;44.23;5.07;;;12.70;99.90;;;;;;5006735;28;20189;-61
2021/12/12 07:14:38;;;;;;;39.57;4.53;;;12.80;99.90;;;;;;5007411;28;20212;-63
2021/12/12 07:17:06;;;;;;;31.80;4.67;;;12.80;99.90;;;;;;5007356;28;20200;-62
2021/12/12 07:19:35;;;;;;;44.07;4.67;;;12.90;99.90;;;;;;5007636;28;20262;-63
2021/12/12 07:22:02;;;;;;;30.10;4.67;;;13.00;99.90;;;;;;4997768;28;20224;-63
2021/12/12 07:24:31;;;;;;;31.33;4.90;;;13.10;99.90;;;;;;5021218;28;20240;-63
2021/12/12 07:26:59;;;;;;;35.17;4.57;;;13.20;99.90;;;;;;5004250;28;20204;-63
2021/12/12 07:29:27;;;;;;;31.40;4.23;;;13.20;99.90;;;;;;5006227;28;20188;-65
2021/12/12 07:31:56;;;;;;;39.90;4.53;;;13.20;99.90;;;;;;5005798;28;20273;-63
2021/12/12 07:34:23;;;;;;;52.57;4.70;;;13.20;99.90;;;;;;5009377;28;20280;-62
2021/12/12 07:36:59;;;;;;;33.90;4.50;;;13.20;99.90;;;;;;5007943;28;20223;-64
2021/12/12 07:39:29;;;;;;;28.30;4.40;;;13.20;99.90;;;;;;5005544;28;20192;-63
2021/12/12 07:41:59;;;;;;;26.07;4.60;;;13.30;99.90;;;;;;5004807;28;20196;-63
2021/12/12 07:44:31;;;;;;;27.43;4.10;;;13.30;99.90;;;;;;5012936;28;20227;-64
2021/12/12 07:46:58;;;;;;;36.00;4.23;;;13.30;99.90;;;;;;5005421;28;20181;-62
2021/12/12 07:49:32;;;;;;;29.57;4.30;;;13.40;99.90;;;;;;5007407;28;20189;-64
2021/12/12 07:51:59;;;;;;;31.27;4.70;;;13.40;99.90;;;;;;5005349;28;20192;-64
2021/12/12 07:54:28;;;;;;;29.17;3.90;;;13.50;99.90;;;;;;5005460;28;20189;-62
2021/12/12 07:56:55;;;;;;;39.10;4.60;;;13.50;99.90;;;;;;5004917;28;20276;-63
2021/12/12 07:59:21;;;;;;;36.87;4.67;;;13.60;99.90;;;;;;5007020;28;20196;-62
2021/12/12 08:01:51;;;;;;;36.43;4.40;;;13.60;99.90;;;;;;5005995;28;20748;-63
2021/12/12 08:04:24;;;;;;;39.40;4.53;;;13.60;99.90;;;;;;5005001;28;20213;-64
2021/12/12 08:06:51;;;;;;;30.47;3.97;;;13.60;99.90;;;;;;5004269;28;20180;-64
2021/12/12 08:09:22;;;;;;;34.50;4.53;;;13.60;99.90;;;;;;5006016;28;20189;-63
2021/12/12 08:11:49;;;;;;;50.43;5.93;;;13.60;99.90;;;;;;5001440;28;20252;-63
2021/12/12 08:14:22;;;;;;;42.03;5.03;;;13.70;99.90;;;;;;5003785;28;20574;-62
2021/12/12 08:16:50;;;;;;;31.20;4.10;;;13.60;99.90;;;;;;5005939;28;20220;-64
2021/12/12 08:19:27;;;;;;;35.17;4.23;;;13.70;99.90;;;;;;5004626;28;20196;-64
2021/12/12 08:22:01;;;;;;;41.70;5.20;;;13.70;99.90;;;;;;5003385;28;20227;-63
2021/12/12 08:24:28;;;;;;;47.77;5.27;;;13.80;99.90;;;;;;5005479;28;20219;-65
2021/12/12 08:26:55;;;;;;;56.37;6.27;;;13.80;99.90;;;;;;4999662;28;20201;-64
2021/12/12 08:29:21;;;;;;;38.40;4.37;;;13.90;99.90;;;;;;5020792;28;20221;-63
2021/12/12 08:31:48;;;;;;;37.17;4.60;;;13.90;99.90;;;;;;5004456;28;20195;-64
2021/12/12 08:34:16;;;;;;;42.57;5.30;;;14.00;99.90;;;;;;5006501;28;20196;-63
2021/12/12 08:36:49;;;;;;;30.87;4.50;;;14.00;99.90;;;;;;5005547;28;20199;-64
2021/12/12 08:39:17;;;;;;;46.97;5.77;;;14.10;99.90;;;;;;5009277;28;20184;-65
2021/12/12 08:41:48;;;;;;;40.60;4.60;;;14.20;99.90;;;;;;5009039;28;20193;-65
2021/12/12 08:44:16;;;;;;;36.20;4.40;;;14.10;99.90;;;;;;5006189;28;20208;-66
2021/12/12 08:46:48;;;;;;;28.47;5.23;;;14.10;99.90;;;;;;5006478;28;20200;-65
2021/12/12 08:49:19;;;;;;;49.80;5.63;;;14.10;99.90;;;;;;5006068;28;20207;-63
2021/12/12 08:52:07;;;;;;;42.63;5.27;;;14.20;99.90;;;;;;5002784;28;20195;-64
2021/12/12 08:54:39;;;;;;;29.87;4.63;;;14.20;99.90;;;;;;5006937;28;20282;-65
2021/12/12 08:57:30;;;;;;;36.83;4.97;;;14.30;99.90;;;;;;5009231;28;20204;-63
2021/12/12 08:59:59;;;;;;;45.90;4.50;;;14.40;99.90;;;;;;5005625;28;20863;-63
2021/12/12 09:02:27;;;;;;;38.77;4.73;;;14.40;99.90;;;;;;5004272;28;20208;-64
2021/12/12 09:05:03;;;;;;;34.40;4.47;;;14.40;99.90;;;;;;5008986;28;20294;-65
2021/12/12 09:07:43;;;;;;;33.17;4.00;;;14.40;99.90;;;;;;5039861;28;20188;-64
2021/12/12 09:10:28;;;;;;;34.10;4.40;;;14.50;99.90;;;;;;5009546;28;20892;-65
2021/12/12 09:13:11;;;;;;;28.73;5.03;;;14.50;99.90;;;;;;5008317;28;20219;-64
2021/12/12 09:16:03;;;;;;;38.63;4.47;;;14.60;99.90;;;;;;5000248;28;20637;-66
2021/12/12 09:19:16;;;;;;;40.67;5.40;;;14.70;99.90;;;;;;5006440;28;20251;-64
2021/12/12 09:22:11;;;;;;;34.27;4.77;;;14.70;99.90;;;;;;5002478;28;20967;-64
2021/12/12 09:25:14;;;;;;;35.20;4.70;;;14.70;99.90;;;;;;5005461;28;20908;-66
2021/12/12 09:28:20;;;;;;;42.43;5.50;;;14.80;99.90;;;;;;4998915;28;20304;-64
2021/12/12 09:30:47;;;;;;;42.47;4.83;;;14.80;99.90;;;;;;4990505;28;20256;-65
2021/12/12 09:33:49;;;;;;;51.33;6.50;;;14.80;99.90;;;;;;5002508;28;20193;-64
2021/12/12 09:36:44;;;;;;;42.13;4.70;;;14.80;99.90;;;;;;4998475;28;20283;-66
2021/12/12 09:39:17;;;;;;;28.90;3.87;;;14.90;99.90;;;;;;5004998;28;21547;-64
2021/12/12 09:42:28;;;;;;;44.23;6.23;;;14.90;99.90;;;;;;5004490;28;20177;-64
2021/12/12 09:45:32;;;;;;;35.77;4.50;;;14.90;99.90;;;;;;4985592;28;20225;-65
2021/12/12 09:51:33;;;;;;;38.13;5.07;;;15.00;99.90;;;;;;5006330;28;20192;-65
2021/12/12 09:54:14;;;;;;;28.37;5.00;;;15.00;99.90;;;;;;5007289;28;20184;-65
2021/12/12 09:56:56;;;;;;;47.67;5.87;;;15.00;99.90;;;;;;5006709;28;20352;-65
2021/12/12 10:00:02;;;;;;;27.87;5.27;;;15.10;99.90;;;;;;4986583;28;20196;-64
2021/12/12 10:03:05;;;;;;;27.83;5.23;;;15.10;99.90;;;;;;4998869;28;20898;-66
2021/12/12 10:06:08;;;;;;;42.57;5.83;;;15.30;99.90;;;;;;5007016;28;20193;-65
2021/12/12 10:09:12;;;;;;;47.30;6.47;;;15.40;99.90;;;;;;5000684;28;20192;-64
2021/12/12 10:12:00;;;;;;;38.20;5.67;;;15.50;99.90;;;;;;5004497;28;20192;-64
2021/12/12 10:14:42;;;;;;;35.13;6.03;;;15.60;99.90;;;;;;5023052;28;20293;-65
2021/12/12 10:17:45;;;;;;;43.90;5.90;;;15.70;99.90;;;;;;5005003;28;20917;-65
2021/12/12 10:20:20;;;;;;;42.40;7.20;;;15.90;99.90;;;;;;5005702;28;20653;-65
2021/12/12 10:23:05;;;;;;;37.97;6.83;;;16.00;99.90;;;;;;5006414;28;20181;-65
2021/12/12 10:25:59;;;;;;;44.80;7.60;;;16.10;99.90;;;;;;5005705;28;20200;-66
2021/12/12 10:28:49;;;;;;;48.13;7.27;;;16.10;99.90;;;;;;5036396;28;20216;-64
2021/12/12 10:31:29;;;;;;;50.60;7.63;;;16.10;99.90;;;;;;5004751;28;20269;-65
2021/12/12 10:34:04;;;;;;;43.83;6.93;;;16.20;99.90;;;;;;4999199;28;20188;-65
2021/12/12 10:36:52;;;;;;;47.33;7.17;;;16.40;99.90;;;;;;5002930;28;20224;-65
2021/12/12 10:39:30;;;;;;;40.67;6.40;;;16.60;99.90;;;;;;5004950;28;20200;-65
2021/12/12 10:42:05;;;;;;;37.90;6.13;;;16.90;99.90;;;;;;5004475;28;20606;-64
2021/12/12 10:44:58;;;;;;;51.43;7.17;;;18.00;99.90;;;;;;5007880;28;20219;-65
2021/12/12 10:48:02;;;;;;;32.20;6.23;;;17.80;99.90;;;;;;5003942;28;20235;-66
2021/12/12 10:51:16;;;;;;;49.27;6.27;;;17.50;99.90;;;;;;5032846;28;20267;-65
2021/12/12 10:54:42;;;;;;;31.60;5.73;;;17.70;99.90;;;;;;4997099;28;20202;-66
2021/12/12 10:57:16;;;;;;;36.67;5.73;;;17.60;99.90;;;;;;4964808;28;20229;-66
2021/12/12 10:59:55;;;;;;;43.27;6.07;;;17.60;99.90;;;;;;4996956;28;20199;-66
2021/12/12 11:02:32;;;;;;;29.27;5.40;;;17.70;99.90;;;;;;5019732;28;20192;-66
2021/12/12 11:05:16;;;;;;;27.67;5.23;;;17.70;99.90;;;;;;4986024;28;20228;-66
2021/12/12 11:07:54;;;;;;;48.03;6.50;;;17.70;99.90;;;;;;5001380;28;20246;-65
2021/12/12 11:10:26;;;;;;;36.77;5.20;;;17.70;99.90;;;;;;5001530;28;20192;-67
2021/12/12 11:13:33;;;;;;;35.60;5.63;;;17.60;99.90;;;;;;4999846;28;20216;-66
2021/12/12 11:16:05;;;;;;;31.97;5.37;;;17.50;99.90;;;;;;5035540;28;20224;-65
2021/12/12 11:19:01;;;;;;;47.50;5.57;;;17.50;99.90;;;;;;5034286;28;20200;-65
2021/12/12 11:21:50;;;;;;;40.93;5.73;;;17.50;99.90;;;;;;4997939;28;20188;-66
2021/12/12 11:24:27;;;;;;;40.17;6.50;;;17.50;99.90;;;;;;5003521;28;20213;-65
2021/12/12 11:27:14;;;;;;;38.87;6.67;;;17.50;99.90;;;;;;5003133;28;20223;-65
2021/12/12 11:30:01;;;;;;;32.23;5.97;;;17.40;99.90;;;;;;5004229;28;20304;-66
2021/12/12 11:32:36;;;;;;;47.27;6.83;;;17.30;99.90;;;;;;5006515;28;20264;-65
2021/12/12 11:35:08;;;;;;;43.17;6.70;;;17.20;99.90;;;;;;5002397;28;20184;-64
2021/12/12 11:37:48;;;;;;;42.77;7.50;;;17.20;99.90;;;;;;5004701;28;20200;-64
2021/12/12 11:40:23;;;;;;;49.27;7.33;;;17.20;99.90;;;;;;4999339;28;20212;-65
2021/12/12 11:43:36;;;;;;;39.40;6.63;;;17.20;99.90;;;;;;4999387;28;20226;-65
2021/12/12 11:46:11;;;;;;;41.33;5.87;;;17.20;99.90;;;;;;5005641;28;20200;-66
2021/12/12 11:49:06;;;;;;;49.37;7.20;;;17.20;99.90;;;;;;5019326;28;20238;-66
2021/12/12 11:51:43;;;;;;;34.10;6.23;;;17.20;99.90;;;;;;5002065;28;20745;-65
2021/12/12 11:54:54;;;;;;;30.10;6.13;;;17.10;99.90;;;;;;5005462;28;20227;-65
2021/12/12 11:57:34;;;;;;;40.53;6.63;;;17.10;99.90;;;;;;5004961;28;20514;-64
2021/12/12 12:00:25;;;;;;;43.03;7.07;;;17.00;99.90;;;;;;5000820;28;20200;-65
2021/12/12 12:03:14;;;;;;;34.87;6.47;;;17.00;99.90;;;;;;4998194;28;20225;-66
2021/12/12 12:05:48;;;;;;;35.80;5.97;;;17.00;99.90;;;;;;5000356;28;20602;-65
2021/12/12 12:08:40;;;;;;;40.27;6.67;;;17.00;99.90;;;;;;4998938;28;20244;-65
2021/12/12 12:11:28;;;;;;;34.50;6.97;;;17.00;99.90;;;;;;5000927;28;20203;-64
2021/12/12 12:14:28;;;;;;;41.73;6.37;;;17.00;99.90;;;;;;5004260;28;20307;-66
2021/12/12 12:17:13;;;;;;;35.27;6.47;;;17.00;99.90;;;;;;5019576;28;20724;-65
2021/12/12 12:20:01;;;;;;;42.57;6.80;;;17.00;99.90;;;;;;5000530;28;20209;-65
2021/12/12 12:22:52;;;;;;;30.77;6.27;;;17.00;99.90;;;;;;4992047;28;20309;-65
2021/12/12 12:28:44;;;;;;;33.93;6.57;;;17.00;99.90;;;;;;4999266;28;20240;-66
2021/12/12 12:31:45;;;;;;;33.37;6.03;;;17.00;99.90;;;;;;4995497;28;20207;-64
2021/12/12 12:35:07;;;;;;;45.40;6.37;;;17.00;99.90;;;;;;4989610;28;20657;-62
2021/12/12 12:38:29;;;;;;;42.80;6.70;;;17.00;99.90;;;;;;5020380;28;20928;-62
2021/12/12 12:41:32;;;;;;;37.60;6.00;;;16.90;99.90;;;;;;5001966;28;20834;-63
2021/12/12 12:44:55;;;;;;;37.67;6.23;;;16.90;99.90;;;;;;5007525;28;20331;-64
2021/12/12 12:48:02;;;;;;;48.43;6.50;;;16.80;99.90;;;;;;5002023;28;20201;-63
2021/12/12 12:51:16;;;;;;;34.43;6.07;;;16.80;99.90;;;;;;5008145;28;20207;-64
2021/12/12 12:54:52;;;;;;;41.83;6.40;;;16.80;99.90;;;;;;5021761;28;20200;-64
2021/12/12 12:57:41;;;;;;;36.60;6.20;;;16.70;99.90;;;;;;4996863;28;20214;-63
2021/12/12 13:00:18;;;;;;;33.73;6.40;;;16.70;99.90;;;;;;4997806;28;20279;-64
2021/12/12 13:03:37;;;;;;;41.43;7.10;;;16.60;99.90;;;;;;4993929;28;20226;-63
2021/12/12 13:06:07;;;;;;;35.97;6.13;;;16.60;99.90;;;;;;5008776;28;20239;-62
2021/12/12 13:09:10;;;;;;;41.97;6.90;;;16.60;99.90;;;;;;5022440;28;20200;-63
2021/12/12 13:12:02;;;;;;;33.37;5.90;;;16.60;99.90;;;;;;4989146;28;20577;-63
2021/12/12 13:14:53;;;;;;;35.43;6.40;;;16.60;99.90;;;;;;5008013;28;20649;-63
2021/12/12 13:17:52;;;;;;;45.17;6.77;;;16.60;99.90;;;;;;5005427;28;20239;-63
2021/12/12 13:20:40;;;;;;;35.07;7.10;;;16.60;99.90;;;;;;4994873;28;20216;-62
2021/12/12 13:23:42;;;;;;;27.87;5.60;;;16.60;99.90;;;;;;5006202;28;20181;-62
2021/12/12 13:26:28;;;;;;;43.40;6.13;;;16.50;99.90;;;;;;5015122;28;20192;-64
2021/12/12 13:29:31;;;;;;;30.37;5.43;;;16.50;99.90;;;;;;5006972;28;20243;-64
2021/12/12 13:32:08;;;;;;;40.77;6.83;;;16.40;99.90;;;;;;5035753;28;20193;-63
2021/12/12 13:34:53;;;;;;;33.37;6.07;;;16.40;99.90;;;;;;5003096;28;20275;-63
2021/12/12 13:37:34;;;;;;;31.80;6.27;;;16.40;99.90;;;;;;5029866;28;20197;-63
2021/12/12 13:40:25;;;;;;;36.07;5.90;;;16.30;99.90;;;;;;5000864;28;20220;-63
2021/12/12 13:43:41;;;;;;;36.57;6.40;;;16.30;99.90;;;;;;5005908;28;20181;-63
2021/12/12 13:46:26;;;;;;;36.37;5.80;;;16.30;99.90;;;;;;5016852;28;20299;-64
2021/12/12 13:49:15;;;;;;;39.70;6.47;;;16.20;99.90;;;;;;5003118;28;20362;-63
2021/12/12 13:52:25;;;;;;;37.10;6.23;;;16.20;99.90;;;;;;5000705;28;20199;-64
2021/12/12 13:55:12;;;;;;;32.70;6.13;;;16.20;99.90;;;;;;5005225;28;20188;-63
2021/12/12 13:58:07;;;;;;;35.97;6.27;;;16.10;99.90;;;;;;5006687;28;20224;-61
2021/12/12 14:00:48;;;;;;;38.23;6.30;;;16.10;99.90;;;;;;5005416;28;20609;-64